createdAt,value
2019-02-05T00:01:45.601Z,163.73
2019-02-05T00:04:15.679Z,147.13
2019-02-05T00:06:45.878Z,134.00
2019-02-05T00:09:16.151Z,129.03
2019-02-05T00:11:47.230Z,190.33
2019-02-05T00:14:18.083Z,198.80
2019-02-05T00:16:47.951Z,171.67
2019-02-05T00:19:17.724Z,146.80
2019-02-05T00:21:47.648Z,138.03
2019-02-05T00:24:17.514Z,129.30
2019-02-05T00:26:47.676Z,113.17
2019-02-05T00:29:19.418Z,167.30
2019-02-05T00:31:51.217Z,124.63
2019-02-05T00:34:21.668Z,137.50
2019-02-05T00:36:54.092Z,145.33
2019-02-05T00:39:24.708Z,137.90
2019-02-05T00:41:55.000Z,134.70
2019-02-05T00:44:25.830Z,96.27
2019-02-05T00:46:56.195Z,98.90
2019-02-05T00:49:26.023Z,100.63
2019-02-05T00:51:55.967Z,106.63
2019-02-05T00:54:25.974Z,109.30
2019-02-05T00:56:55.802Z,112.07
2019-02-05T00:59:25.646Z,111.63
2019-02-05T01:01:55.760Z,102.90
2019-02-05T01:04:25.383Z,77.50
2019-02-05T01:06:55.195Z,101.23
2019-02-05T01:09:25.355Z,64.67
2019-02-05T01:11:55.432Z,124.33
2019-02-05T01:14:28.408Z,119.10
2019-02-05T01:16:59.205Z,110.80
2019-02-05T01:19:29.153Z,104.80
2019-02-05T01:21:59.348Z,130.00
2019-02-05T01:24:32.573Z,105.77
2019-02-05T01:27:02.880Z,85.27
2019-02-05T01:29:32.965Z,61.00
2019-02-05T01:32:03.904Z,73.77
2019-02-05T01:34:34.068Z,67.37
2019-02-05T01:37:04.244Z,69.87
2019-02-05T01:39:34.363Z,76.63
2019-02-05T01:42:04.571Z,78.40
2019-02-05T01:44:34.677Z,69.87
2019-02-05T01:47:05.675Z,69.97
2019-02-05T01:49:36.363Z,97.03
2019-02-05T01:52:17.532Z,87.20
2019-02-05T01:54:48.131Z,91.60
2019-02-05T01:57:18.005Z,131.63
2019-02-05T01:59:47.930Z,101.97
2019-02-05T02:02:18.199Z,191.03
2019-02-05T02:04:48.088Z,108.37
2019-02-05T02:07:18.091Z,104.40
2019-02-05T02:09:48.299Z,57.33
2019-02-05T02:12:18.381Z,31.70
2019-02-05T02:14:48.353Z,34.73
2019-02-05T02:17:18.257Z,24.40
2019-02-05T02:19:48.144Z,45.73
2019-02-05T02:22:18.291Z,66.20
2019-02-05T02:24:48.568Z,33.07
2019-02-05T02:27:18.508Z,25.20
2019-02-05T02:30:10.244Z,20.63
2019-02-05T02:32:40.453Z,16.27
2019-02-05T02:42:33.332Z,21.23
2019-02-05T02:45:03.512Z,17.60
2019-02-05T02:47:33.429Z,15.27
2019-02-05T02:50:03.604Z,18.83
2019-02-05T02:52:33.926Z,18.07
2019-02-05T02:55:04.965Z,15.73
2019-02-05T02:57:35.122Z,19.03
2019-02-05T03:00:07.200Z,16.33
2019-02-05T03:02:38.727Z,17.43
2019-02-05T03:05:14.520Z,16.00
2019-02-05T03:07:44.543Z,15.43
2019-02-05T03:10:20.569Z,17.43
2019-02-05T03:12:51.001Z,16.73
2019-02-05T03:15:21.084Z,20.87
2019-02-05T03:17:51.276Z,16.33
2019-02-05T03:20:31.026Z,19.00
2019-02-05T03:23:01.388Z,18.73
2019-02-05T03:25:31.895Z,16.53
2019-02-05T03:28:01.982Z,18.20
2019-02-05T03:30:32.256Z,16.17
2019-02-05T03:33:02.420Z,17.03
2019-02-05T03:35:32.531Z,16.20
2019-02-05T03:38:02.772Z,18.13
2019-02-05T03:41:07.194Z,16.30
2019-02-05T03:43:40.119Z,16.90
2019-02-05T03:46:11.423Z,17.67
2019-02-05T03:48:42.239Z,20.13
2019-02-05T03:51:46.641Z,16.00
2019-02-05T03:54:52.006Z,19.80
2019-02-05T03:57:38.546Z,18.97
2019-02-05T04:00:58.953Z,17.50
2019-02-05T04:04:37.363Z,16.20
2019-02-05T04:07:42.231Z,17.53
2019-02-05T04:10:57.921Z,16.37
2019-02-05T04:13:52.981Z,18.23
2019-02-05T04:17:00.112Z,13.83
2019-02-05T04:20:14.086Z,16.33
2019-02-05T04:23:12.289Z,14.93
2019-02-05T04:26:35.044Z,14.27
2019-02-05T04:29:44.691Z,18.33
2019-02-05T04:32:39.244Z,13.43
2019-02-05T04:35:52.070Z,14.33
2019-02-05T04:38:50.532Z,13.17
2019-02-05T04:41:35.302Z,13.37
2019-02-05T04:44:44.338Z,12.90
2019-02-05T04:47:42.504Z,13.23
2019-02-05T04:50:25.598Z,14.30
2019-02-05T04:53:52.657Z,16.00
2019-02-05T04:57:07.219Z,15.90
2019-02-05T05:00:12.562Z,13.30
2019-02-05T05:03:04.512Z,13.33
2019-02-05T05:06:02.492Z,13.70
2019-02-05T05:09:06.835Z,16.07
2019-02-05T05:11:40.883Z,15.03
2019-02-05T05:14:09.705Z,11.67
2019-02-05T05:16:40.044Z,14.17
2019-02-05T05:19:10.305Z,14.93
2019-02-05T05:21:40.585Z,13.47
2019-02-05T05:24:10.808Z,11.43
2019-02-05T05:26:41.200Z,13.27
2019-02-05T05:29:11.532Z,13.10
2019-02-05T05:31:44.141Z,13.47
2019-02-05T05:34:13.981Z,13.57
2019-02-05T05:36:52.195Z,13.47
2019-02-05T05:39:24.978Z,16.60
2019-02-05T05:41:55.335Z,15.07
2019-02-05T05:44:26.309Z,14.07
2019-02-05T05:46:56.412Z,20.23
2019-02-05T05:49:26.658Z,22.53
2019-02-05T05:51:57.433Z,19.73
2019-02-05T05:54:27.517Z,16.57
2019-02-05T05:56:57.453Z,18.67
2019-02-05T05:59:28.087Z,21.10
2019-02-05T06:01:58.285Z,21.30
2019-02-05T06:04:28.952Z,21.63
2019-02-05T06:06:58.994Z,18.57
2019-02-05T06:09:29.179Z,19.37
2019-02-05T06:11:59.293Z,22.90
2019-02-05T06:14:29.477Z,20.80
2019-02-05T06:16:59.718Z,19.70
2019-02-05T06:19:30.358Z,19.53
2019-02-05T06:22:00.395Z,24.87
2019-02-05T06:24:30.459Z,23.03
2019-02-05T06:27:00.506Z,19.80
2019-02-05T06:29:30.664Z,20.37
2019-02-05T06:32:00.704Z,19.57
2019-02-05T06:34:30.853Z,21.13
2019-02-05T06:37:01.292Z,17.80
2019-02-05T06:39:31.494Z,18.07
2019-02-05T06:42:01.994Z,17.63
2019-02-05T06:44:32.621Z,17.43
2019-02-05T06:47:03.529Z,18.50
2019-02-05T06:49:34.576Z,19.57
2019-02-05T06:52:04.713Z,19.20
2019-02-05T06:54:34.840Z,19.77
2019-02-05T06:57:05.630Z,23.73
2019-02-05T06:59:35.817Z,17.40
2019-02-05T07:02:08.074Z,17.93
2019-02-05T07:04:38.201Z,19.40
2019-02-05T07:07:08.096Z,19.83
2019-02-05T07:09:39.298Z,17.30
2019-02-05T07:12:12.278Z,16.80
2019-02-05T07:14:42.432Z,24.67
2019-02-05T07:17:15.222Z,18.37
2019-02-05T07:19:45.342Z,21.93
2019-02-05T07:22:15.329Z,16.80
2019-02-05T07:24:46.359Z,19.43
2019-02-05T07:27:16.510Z,20.10
2019-02-05T07:29:46.675Z,22.33
2019-02-05T07:32:18.057Z,21.07
2019-02-05T07:34:49.781Z,23.60
2019-02-05T07:37:20.526Z,20.67
2019-02-05T07:39:51.099Z,19.07
2019-02-05T07:42:23.642Z,22.77
2019-02-05T07:44:53.892Z,24.53
2019-02-05T07:47:24.667Z,21.07
2019-02-05T07:49:54.599Z,23.20
2019-02-05T07:52:24.627Z,25.37
2019-02-05T07:54:56.971Z,27.77
2019-02-05T07:57:27.306Z,31.73
2019-02-05T08:00:00.171Z,29.70
2019-02-05T08:02:30.047Z,25.50
2019-02-05T08:05:00.804Z,32.17
2019-02-05T08:07:31.298Z,36.37
2019-02-05T08:10:01.603Z,34.70
2019-02-05T08:12:34.462Z,37.50
2019-02-05T08:15:06.965Z,32.57
2019-02-05T08:17:36.524Z,32.23
2019-02-05T08:20:09.644Z,33.40
2019-02-05T08:22:40.347Z,32.17
2019-02-05T08:25:12.232Z,36.73
2019-02-05T08:27:41.874Z,33.70
2019-02-05T08:30:19.401Z,33.70
2019-02-05T08:32:51.987Z,29.20
2019-02-05T08:35:21.906Z,28.80
2019-02-05T08:37:51.603Z,30.70
2019-02-05T08:40:24.136Z,30.53
2019-02-05T08:42:53.984Z,23.77
2019-02-05T08:45:26.307Z,25.00
2019-02-05T08:47:56.799Z,26.67
2019-02-05T08:50:27.824Z,26.57
2019-02-05T08:52:57.855Z,23.53
2019-02-05T08:55:30.787Z,25.77
2019-02-05T08:58:01.935Z,26.10
2019-02-05T09:00:33.652Z,24.23
2019-02-05T09:03:03.667Z,23.77
2019-02-05T09:05:35.763Z,24.40
2019-02-05T09:08:05.746Z,21.30
2019-02-05T09:10:36.374Z,23.00
2019-02-05T09:13:06.500Z,23.70
2019-02-05T09:15:38.493Z,20.90
2019-02-05T09:18:09.414Z,24.33
2019-02-05T09:20:42.862Z,24.77
2019-02-05T09:23:14.368Z,19.47
2019-02-05T09:25:45.488Z,19.17
2019-02-05T09:28:15.614Z,22.87
2019-02-05T09:30:45.322Z,21.93
2019-02-05T09:33:17.683Z,20.43
2019-02-05T09:35:47.380Z,19.93
2019-02-05T09:38:17.159Z,26.03
2019-02-05T09:40:46.984Z,93.00
2019-02-05T09:43:17.527Z,32.73
2019-02-05T09:45:49.036Z,16.27
2019-02-05T09:48:18.835Z,18.37
2019-02-05T09:50:48.638Z,18.33
2019-02-05T09:53:19.130Z,18.27
2019-02-05T09:55:49.421Z,18.03
2019-02-05T09:58:20.837Z,17.30
2019-02-05T10:00:50.555Z,18.07
2019-02-05T10:03:20.565Z,15.17
2019-02-05T10:05:54.544Z,13.37
2019-02-05T10:08:24.683Z,13.03
2019-02-05T10:10:54.349Z,8.20
2019-02-05T10:13:24.556Z,10.30
2019-02-05T10:15:54.428Z,8.13
2019-02-05T10:18:24.568Z,8.23
2019-02-05T10:20:55.363Z,5.50
2019-02-05T10:23:25.081Z,7.30
2019-02-05T10:25:56.549Z,5.87
2019-02-05T10:28:26.123Z,7.10
2019-02-05T10:30:55.881Z,6.70
2019-02-05T10:33:25.692Z,5.70
2019-02-05T10:35:55.464Z,6.00
2019-02-05T10:38:26.238Z,4.90
2019-02-05T10:40:56.037Z,5.50
2019-02-05T10:43:26.200Z,5.83
2019-02-05T10:45:55.835Z,4.00
2019-02-05T10:48:25.623Z,3.50
2019-02-05T10:50:55.364Z,3.93
2019-02-05T10:53:25.174Z,4.33
2019-02-05T10:55:55.040Z,3.60
2019-02-05T10:58:25.152Z,5.07
2019-02-05T11:00:54.991Z,4.00
2019-02-05T11:03:25.039Z,2.87
2019-02-05T11:05:54.786Z,3.90
2019-02-05T11:08:24.541Z,3.87
2019-02-05T11:10:54.553Z,3.17
2019-02-05T11:13:24.330Z,3.17
2019-02-05T11:15:54.375Z,3.57
2019-02-05T11:18:24.404Z,3.03
2019-02-05T11:20:55.315Z,2.80
2019-02-05T11:23:25.005Z,2.83
2019-02-05T11:25:54.664Z,2.50
2019-02-05T11:28:24.426Z,3.00
2019-02-05T11:30:55.204Z,3.93
2019-02-05T11:33:25.260Z,5.03
2019-02-05T11:35:54.932Z,2.00
2019-02-05T11:38:25.704Z,5.47
2019-02-05T11:40:55.640Z,3.63
2019-02-05T11:43:25.397Z,2.20
2019-02-05T11:45:55.195Z,2.47
2019-02-05T11:48:25.465Z,5.50
2019-02-05T11:50:55.706Z,2.10
2019-02-05T11:53:26.029Z,10.40
2019-02-05T11:55:56.316Z,2.23
2019-02-05T11:58:26.664Z,1.90
2019-02-05T12:01:00.209Z,2.37
2019-02-05T12:03:32.331Z,2.70
2019-02-05T12:06:04.062Z,4.40
2019-02-05T12:08:34.739Z,3.00
2019-02-05T12:11:04.940Z,20.47
2019-02-05T12:13:34.839Z,1.80
2019-02-05T12:16:05.073Z,2.50
2019-02-05T12:18:34.761Z,2.90
2019-02-05T12:21:05.081Z,1.90
2019-02-05T12:23:34.902Z,2.50
2019-02-05T12:26:04.715Z,2.53
2019-02-05T12:28:35.073Z,3.90
2019-02-05T12:31:04.862Z,2.93
2019-02-05T12:33:35.696Z,3.13
2019-02-05T12:36:07.164Z,3.30
2019-02-05T12:38:36.931Z,2.70
2019-02-05T12:41:07.397Z,3.23
2019-02-05T12:43:37.206Z,4.00
2019-02-05T12:46:07.288Z,3.83
2019-02-05T12:48:37.246Z,4.43
2019-02-05T12:51:07.743Z,5.40
2019-02-05T12:53:37.602Z,5.60
2019-02-05T12:56:07.476Z,5.67
2019-02-05T12:58:37.754Z,5.57
2019-02-05T13:01:07.930Z,6.37
2019-02-05T13:03:37.952Z,6.53
2019-02-05T13:06:08.303Z,6.60
2019-02-05T13:08:39.833Z,6.30
2019-02-05T13:11:09.565Z,5.77
2019-02-05T13:13:39.980Z,6.90
2019-02-05T13:16:09.706Z,6.97
2019-02-05T13:18:39.855Z,9.03
2019-02-05T13:21:09.587Z,9.67
2019-02-05T13:23:41.020Z,8.43
2019-02-05T13:26:11.059Z,7.77
2019-02-05T13:28:42.793Z,9.20
2019-02-05T13:31:13.705Z,9.10
2019-02-05T13:33:44.166Z,7.90
2019-02-05T13:36:16.121Z,8.77
2019-02-05T13:38:46.190Z,9.23
2019-02-05T13:41:16.298Z,9.67
2019-02-05T13:43:46.699Z,10.20
2019-02-05T13:46:17.096Z,9.20
2019-02-05T13:48:46.930Z,9.27
2019-02-05T13:51:18.174Z,9.00
2019-02-05T13:53:47.989Z,9.20
2019-02-05T13:56:18.297Z,9.20
2019-02-05T13:58:48.124Z,9.27
2019-02-05T14:01:20.686Z,9.10
2019-02-05T14:03:50.834Z,9.30
2019-02-05T14:06:22.824Z,7.83
2019-02-05T14:08:55.388Z,7.37
2019-02-05T14:11:25.128Z,7.70
2019-02-05T14:13:55.305Z,6.03
2019-02-05T14:16:25.574Z,8.90
2019-02-05T14:18:56.029Z,6.47
2019-02-05T14:21:26.578Z,7.00
2019-02-05T14:24:02.401Z,5.13
2019-02-05T14:26:34.089Z,4.27
2019-02-05T14:29:03.460Z,4.97
2019-02-05T14:31:33.626Z,4.53
2019-02-05T14:34:03.339Z,3.70
2019-02-05T14:36:34.660Z,3.47
2019-02-05T14:39:06.573Z,3.47
2019-02-05T14:41:39.219Z,3.73
2019-02-05T14:44:11.274Z,5.03
2019-02-05T14:46:42.716Z,2.90
2019-02-05T14:49:12.916Z,2.80
2019-02-05T14:51:42.804Z,3.43
2019-02-05T14:54:12.573Z,5.17
2019-02-05T14:56:42.822Z,3.97
2019-02-05T14:59:12.831Z,3.30
2019-02-05T15:01:43.492Z,4.35
2019-02-05T15:04:13.268Z,4.20
2019-02-05T15:06:43.290Z,4.10
2019-02-05T15:09:13.960Z,4.70
2019-02-05T15:11:43.973Z,4.43
2019-02-05T15:14:13.787Z,4.77
2019-02-05T15:16:44.799Z,5.53
2019-02-05T15:19:14.665Z,4.20
2019-02-05T15:21:44.749Z,4.87
2019-02-05T15:24:15.771Z,4.47
2019-02-05T15:26:46.972Z,4.53
2019-02-05T15:29:17.416Z,4.50
2019-02-05T15:31:54.267Z,4.17
2019-02-05T15:34:26.948Z,9.00
2019-02-05T15:36:56.883Z,4.97
2019-02-05T15:39:26.733Z,4.47
2019-02-05T15:41:56.897Z,4.20
2019-02-05T15:44:26.677Z,5.50
2019-02-05T15:46:56.371Z,4.33
2019-02-05T15:49:27.096Z,4.37
2019-02-05T15:51:57.104Z,3.57
2019-02-05T15:54:27.094Z,6.17
2019-02-05T15:56:56.818Z,3.70
2019-02-05T15:59:26.608Z,3.83
2019-02-05T16:02:05.981Z,4.43
2019-02-05T16:04:28.434Z,4.87
2019-02-05T16:06:58.623Z,3.40
2019-02-05T16:09:28.860Z,3.40
2019-02-05T16:12:00.297Z,3.53
2019-02-05T16:14:30.594Z,2.77
2019-02-05T16:17:00.965Z,2.93
2019-02-05T16:19:30.889Z,3.37
2019-02-05T16:22:00.802Z,3.27
2019-02-05T16:24:30.908Z,5.87
2019-02-05T16:27:01.195Z,3.20
2019-02-05T16:29:33.685Z,4.10
2019-02-05T16:32:04.831Z,5.27
2019-02-05T16:34:46.557Z,3.70
2019-02-05T16:37:17.871Z,4.20
2019-02-05T16:39:49.175Z,4.87
2019-02-05T16:42:20.192Z,4.17
2019-02-05T16:44:50.434Z,4.90
2019-02-05T16:47:23.132Z,5.20
2019-02-05T16:49:52.881Z,6.20
2019-02-05T16:52:23.339Z,4.60
2019-02-05T16:54:53.032Z,6.50
2019-02-05T16:57:23.383Z,8.50
2019-02-05T16:59:55.371Z,5.27
2019-02-05T17:02:28.853Z,6.17
2019-02-05T17:04:57.244Z,6.27
2019-02-05T17:07:30.414Z,6.70
2019-02-05T17:10:00.436Z,6.23
2019-02-05T17:12:32.169Z,6.30
2019-02-05T17:15:02.309Z,6.80
2019-02-05T17:17:34.825Z,7.50
2019-02-05T17:20:06.029Z,7.43
2019-02-05T17:22:37.120Z,8.18
2019-02-05T17:25:08.274Z,10.97
2019-02-05T17:27:39.145Z,7.40
2019-02-05T17:30:12.547Z,7.72
2019-02-05T17:32:45.504Z,7.47
2019-02-05T17:35:17.787Z,7.20
2019-02-05T17:37:47.690Z,8.30
2019-02-05T17:40:19.384Z,7.67
2019-02-05T17:42:49.541Z,8.03
2019-02-05T17:45:24.677Z,8.17
2019-02-05T17:47:59.344Z,7.83
2019-02-05T17:50:29.547Z,7.60
2019-02-05T17:55:59.658Z,9.80
2019-02-05T17:58:31.586Z,7.80
2019-02-05T18:01:11.781Z,10.90
2019-02-05T18:03:41.656Z,12.93
2019-02-05T18:06:16.385Z,9.17
2019-02-05T18:08:47.044Z,9.93
2019-02-05T18:11:17.049Z,10.57
2019-02-05T18:13:46.812Z,10.10
2019-02-05T18:16:20.613Z,8.30
2019-02-05T18:18:50.298Z,9.37
2019-02-05T18:21:20.514Z,7.70
2019-02-05T18:23:50.241Z,8.50
2019-02-05T18:26:20.768Z,11.03
2019-02-05T18:28:51.333Z,9.40
2019-02-05T18:31:21.700Z,9.83
2019-02-05T18:33:52.531Z,9.97
2019-02-05T18:36:23.308Z,10.50
2019-02-05T18:38:54.103Z,9.73
2019-02-05T18:41:28.974Z,11.37
2019-02-05T18:43:59.713Z,11.33
2019-02-05T18:46:30.064Z,12.67
2019-02-05T18:49:05.651Z,10.23
2019-02-05T18:51:32.410Z,11.37
2019-02-05T18:54:04.412Z,10.57
2019-02-05T18:56:35.176Z,11.73
2019-02-05T18:59:06.547Z,11.43
2019-02-05T19:01:36.493Z,10.57
2019-02-05T19:04:06.555Z,10.47
2019-02-05T19:06:36.891Z,11.43
2019-02-05T19:09:13.098Z,12.23
2019-02-05T19:11:42.830Z,11.17
2019-02-05T19:14:12.748Z,14.00
2019-02-05T19:16:42.552Z,17.13
2019-02-05T19:19:15.262Z,12.50
2019-02-05T19:21:45.021Z,12.63
2019-02-05T19:24:30.946Z,12.10
2019-02-05T19:27:00.777Z,12.13
2019-02-05T19:29:30.540Z,11.10
2019-02-05T19:32:00.771Z,11.13
2019-02-05T19:34:30.573Z,13.63
2019-02-05T19:37:01.462Z,11.17
2019-02-05T19:39:31.482Z,11.97
2019-02-05T19:42:04.063Z,12.40
2019-02-05T19:44:44.036Z,7.70
2019-02-05T19:47:24.430Z,8.97
2019-02-05T19:49:57.077Z,7.97
2019-02-05T19:52:28.662Z,8.37
2019-02-05T19:54:59.778Z,8.37
2019-02-05T19:57:29.512Z,14.97
2019-02-05T19:59:59.759Z,15.73
2019-02-05T20:02:29.490Z,23.63
2019-02-05T20:04:59.176Z,9.13
2019-02-05T20:07:30.304Z,9.13
2019-02-05T20:10:03.616Z,12.53
2019-02-05T20:12:37.333Z,8.30
2019-02-05T20:15:08.633Z,7.17
2019-02-05T20:17:40.800Z,8.73
2019-02-05T20:20:12.834Z,8.60
2019-02-05T20:22:43.820Z,5.60
2019-02-05T20:25:17.572Z,8.10
2019-02-05T20:27:50.401Z,5.40
2019-02-05T20:30:20.606Z,9.97
2019-02-05T20:32:50.832Z,10.07
2019-02-05T20:35:20.957Z,10.13
2019-02-05T20:37:53.421Z,11.23
2019-02-05T20:40:23.143Z,8.90
2019-02-05T20:42:56.241Z,5.53
2019-02-05T20:45:26.063Z,6.10
2019-02-05T20:47:59.662Z,8.37
2019-02-05T20:50:30.069Z,6.13
2019-02-05T20:53:13.121Z,8.20
2019-02-05T20:55:34.571Z,6.17
2019-02-05T20:58:05.632Z,8.97
2019-02-05T21:00:36.023Z,5.33
2019-02-05T21:03:07.153Z,4.67
2019-02-05T21:05:37.293Z,7.10
2019-02-05T21:08:07.477Z,5.43
2019-02-05T21:10:40.719Z,7.87
2019-02-05T21:13:11.762Z,5.20
2019-02-05T21:15:43.023Z,11.20
2019-02-05T21:18:17.305Z,7.00
2019-02-05T21:20:47.695Z,6.07
2019-02-05T21:23:21.075Z,5.90
2019-02-05T21:25:52.413Z,3.40
2019-02-05T21:28:22.836Z,4.83
2019-02-05T21:30:57.551Z,3.23
2019-02-05T21:33:34.176Z,6.00
2019-02-05T21:36:04.451Z,3.23
2019-02-05T21:38:35.563Z,2.20
2019-02-05T21:41:11.772Z,2.53
2019-02-05T21:43:42.074Z,1.57
2019-02-05T21:46:12.223Z,1.53
2019-02-05T21:48:49.563Z,4.73
2019-02-05T21:51:26.821Z,1.33
2019-02-05T21:53:56.802Z,1.53
2019-02-05T21:56:30.230Z,2.03
2019-02-05T21:59:03.904Z,0.60
2019-02-05T22:01:36.475Z,1.10
2019-02-05T22:04:09.827Z,1.13
2019-02-05T22:06:39.544Z,1.73
2019-02-05T22:09:14.053Z,2.60
2019-02-05T22:12:08.262Z,1.67
2019-02-05T22:14:45.900Z,1.90
2019-02-05T22:17:20.275Z,1.23
2019-02-05T22:19:53.364Z,1.63
2019-02-05T22:22:28.073Z,1.50
2019-02-05T22:24:59.837Z,2.13
2019-02-05T22:27:30.129Z,1.87
2019-02-05T22:30:00.373Z,4.60
2019-02-05T22:32:32.287Z,2.30
2019-02-05T22:35:02.379Z,2.07
2019-02-05T22:37:33.855Z,2.63
2019-02-05T22:40:06.043Z,2.80
2019-02-05T22:42:37.894Z,2.42
2019-02-05T22:45:09.404Z,2.87
2019-02-05T22:47:42.255Z,2.00
2019-02-05T22:50:15.852Z,3.77
2019-02-05T22:52:45.948Z,3.70
2019-02-05T22:55:16.126Z,2.53
2019-02-05T22:57:46.009Z,2.20
2019-02-05T23:00:29.827Z,3.00
2019-02-05T23:03:00.251Z,2.17
2019-02-05T23:06:07.923Z,3.23
2019-02-05T23:08:39.194Z,2.20
2019-02-05T23:11:56.834Z,3.93
2019-02-05T23:14:27.500Z,8.50
2019-02-05T23:16:59.264Z,14.90
2019-02-05T23:19:29.421Z,9.60
2019-02-05T23:21:59.455Z,10.47
2019-02-05T23:24:29.797Z,11.00
2019-02-05T23:27:00.960Z,11.07
2019-02-05T23:29:30.972Z,11.10
2019-02-05T23:32:03.151Z,7.90
2019-02-05T23:34:33.340Z,12.40
2019-02-05T23:37:05.005Z,13.47
2019-02-05T23:39:43.687Z,12.90
2019-02-05T23:42:13.727Z,6.73
2019-02-05T23:44:44.568Z,13.90
2019-02-05T23:47:14.941Z,9.17
2019-02-05T23:49:45.477Z,17.10
2019-02-05T23:52:15.469Z,10.37
2019-02-05T23:54:46.055Z,15.90
2019-02-05T23:57:15.860Z,14.20
2019-02-05T23:59:45.822Z,13.27
